x

Western Caribbean - 195 Nm Wsw Of Negril Jamiaca (42057) Wave Buoy

3:50 - Sun 25th Jan 2015 All times are UTC.

  • Sig Wave height 2.3ft
  • Swell Direction
  • Peak Period 7s
  • Average Period 4s
  • Wind
    11mph, 13mph gusts
  • Sea Temp 82°f
  • Luft Temp 80°f
  • Sea Pressure 1015.9mb

More Historic Weather Station data

Upgrade to MSW Pro to gain access to the past 30 days of data for over 8000 Wavebouys and Weather Stations around the globe.

Join Pro

Comparision Forecast

View Surf forecast
   
So 01/25 3:50 2.5ft 7s 4s 11 13 mph 1015.9mb 82f 80f
2:50 2ft 7s 4s 11 16 mph 1015.9mb 82f 80f
1:50 2.5ft 7s 4s 11 16 mph 1015.4mb 82f 80f
12:50 2ft 6s 5s 11 13 mph 1014.9mb 82f 80f
11:50 2ft 8s 5s 11 13 mph 1014.5mb 82f 80f
10:50 2ft 7s 5s 9 11 mph 1014mb 82f 79f
9:50 2ft 7s 5s 9 11 mph 1013.6mb 82f 79f
8:50 2.5ft 7s 5s 9 11 mph 1013.4mb 82f 79f
7:50 2ft 6s 5s 7 9 mph 1013.8mb 82f 79f
6:50 2.5ft 7s 5s 7 9 mph 1014.3mb 82f 80f
5:50 2.5ft 7s 5s 7 9 mph 1014.7mb 82f 80f
4:50 2.5ft 7s 5s 7 9 mph 1015.3mb 82f 80f
3:50 2.5ft 7s 5s 9
mph
1015.7mb 82f 80f
2:50 2ft 6s 5s 9 11 mph 1015.9mb 82f 80f
1:50 2.5ft 7s 5s 9 11 mph 1015.7mb 82f 80f
12:50 2.5ft 7s 5s 4 7 mph 1015.2mb 82f 80f
Sa 01/24 11:50 2.5ft 7s 5s 4 7 mph 1014.7mb 82f 79f
10:50 2.5ft 7s 5s 7 9 mph 1014.3mb 82f 80f
9:50 2.5ft 7s 4s 9 11 mph 1014mb 82f 79f
8:50 2.5ft 7s 5s 11 13 mph 1014.1mb 82f 79f
7:50 2.5ft 8s 5s 11 13 mph 1014.4mb 82f 80f
6:50 2.5ft 7s 5s 9 11 mph 1015mb 82f 80f
5:50 2.5ft 7s 5s 11 13 mph 1015.8mb 82f 80f
4:50 2.5ft 7s 5s 11 13 mph 1016.6mb 82f 80f
3:50 2.5ft 6s 5s 11 13 mph 1017.1mb 82f 80f
2:50 3ft 7s 5s 9 11 mph 1017.1mb 82f 80f
1:50 3.5ft 7s 5s 7 9 mph 1016.5mb 82f 80f
12:50 3ft 7s 5s 7 9 mph 1015.9mb 82f 80f
11:50 3.5ft 7s 5s 7 9 mph 1015.2mb 82f 80f
10:50 3ft 7s 5s 4 7 mph 1014.9mb 82f 80f
9:50 3ft 7s 5s 7 9 mph 1014.5mb 82f 80f
8:50 3ft 7s 5s 7 9 mph 1014.3mb 82f 80f
7:50 3ft 7s 5s 7 9 mph 1014.4mb 82f 80f
6:50 3.5ft 7s 5s 7 9 mph 1014.7mb 82f 80f
5:50 3ft 7s 5s 9 11 mph 1015mb 82f 80f
4:50 3ft 7s 5s 11 13 mph 1015.2mb 82f 80f
3:50 3ft 7s 5s 11 13 mph 1015.4mb 82f 80f
2:50 3ft 6s 5s 11 13 mph 1015.5mb 82f 80f
1:50 3.5ft 7s 5s 11 13 mph 1015mb 82f 81f
12:50 3ft 7s 5s 11 13 mph 1014.4mb 82f 81f
Fr 01/23 11:50 3ft 7s 5s 11 13 mph 1014mb 82f 81f
10:50 3ft 6s 5s 11 13 mph 1013.6mb 82f 81f
9:50 3.5ft 6s 5s 11 13 mph 1013.6mb 82f 81f
8:50 3ft 7s 5s 11 13 mph 1013.6mb 82f 81f
7:50 3.5ft 7s 5s 11 13 mph 1013.8mb 82f 81f
6:50 3.5ft 7s 5s 13 16 mph 1014.5mb 82f 81f
5:50 3.5ft 6s 5s 11 13 mph 1015.3mb 82f 81f
4:50 3.5ft 6s 5s 11 13 mph 1016.3mb 82f 81f
3:50 3.5ft 6s 5s 13 16 mph 1016.6mb 82f 81f
2:50 3.5ft 6s 5s 13 16 mph 1016.6mb 82f 81f
1:50 3.5ft 6s 5s 13 16 mph 1016.4mb 82f 81f
12:50 3.5ft 6s 5s 13 16 mph 1015.6mb 82f 80f
11:50 3ft 7s 5s 11 13 mph 1015.3mb 82f 80f
10:50 3ft 7s 5s 11 16 mph 1015mb 82f 80f
9:50 3ft 5s 4s 11 13 mph 1014.5mb 82f 80f
8:50 3ft 5s 4s 11 16 mph 1014.6mb 82f 80f
7:50 3ft 5s 4s 13 16 mph 1014.8mb 82f 80f
6:50 3ft 4s 4s 13 16 mph 1015.2mb 82f 80f
5:50 3.5ft 5s 5s 13 16 mph 1015.9mb 82f 80f
4:50 3.5ft 4s 4s 13 16 mph 1016.5mb 82f 80f
3:50 3.5ft 5s 5s 11 13 mph 1016.8mb 82f 80f
2:50 3.5ft 4s 4s 13 16 mph 1017mb 82f 80f
1:50 3.5ft 5s 4s 16 18 mph 1016.8mb 82f 81f
12:50 3.5ft 5s 4s 16 18 mph 1016.5mb 82f 81f
Do 01/22 11:50 3.5ft 5s 4s 16 18 mph 1016mb 82f 81f
10:50 3.5ft 5s 4s 16 18 mph 1015.7mb 82f 81f
9:50 3.5ft 5s 4s 16 18 mph 1015.3mb 82f 81f
8:50 3.5ft 5s 4s 16 18 mph 1014.9mb 82f 81f
7:50 3.5ft 7s 4s 16 18 mph 1015.1mb 82f 81f
6:50 3.5ft 4s 4s 16 18 mph 1015.6mb 82f 81f
5:50 3.5ft 7s 4s 16 18 mph 1016.4mb 82f 81f
4:50 3.5ft 5s 4s 16 18 mph 1017.2mb 82f 81f
3:50 3.5ft 4s 4s 16 18 mph 1017.4mb 82f 81f
2:50 3ft 7s 4s 18 20 mph 1017.2mb 82f 81f
1:50 3ft 7s 4s 18 20 mph 1016.8mb 82f 81f
12:50 2.5ft 7s 4s 13 16 mph 1016.3mb 82f 79f
11:50 2.5ft 7s 4s 13 16 mph 1015.4mb 82f 80f
10:50 2.5ft 8s 5s 11 13 mph 1014.8mb 82f 80f
9:50 2.5ft 7s 5s 11 13 mph 1014.4mb 82f 80f
8:50 3ft 7s 4s 11 16 mph 1014.4mb 82f 79f
7:50 3ft 8s 5s 13 16 mph 1014.4mb 82f 80f
6:50 2.5ft 7s 4s 13 16 mph 1014.9mb 82f 80f
5:50 3ft 8s 5s 11 13 mph 1015.4mb 82f 80f
4:50 3ft 8s 5s 9
mph
1015.8mb 82f 79f
3:50 3ft 7s 5s 13 16 mph 1016.2mb 82f 80f
2:50 3ft 8s 5s 13 16 mph 1016.1mb 82f 80f
1:50 3ft 8s 5s 13 18 mph 1015.6mb 82f 80f
12:50 3ft 7s 5s 11 16 mph 1015.2mb 82f 80f
Mi 01/21 11:50 3ft 7s 5s 11 13 mph 1014.6mb 82f 80f
10:50 2.5ft 6s 5s 11 13 mph 1014.1mb 82f 81f
9:50 2.5ft 7s 5s 9 11 mph 1013.6mb 82f 81f
8:50 2.5ft 6s 5s 9
mph
1013.6mb 82f 81f
7:50 2.5ft 6s 5s 9 11 mph 1014.1mb 82f 81f
6:50 2.5ft 6s 5s 9 11 mph 1014.7mb 82f 81f
5:50 3ft 6s 5s 11 13 mph 1015.5mb 82f 81f